createdAt,value
2018-03-06T00:02:19.914Z,198.85
2018-03-06T00:04:47.146Z,172.13
2018-03-06T00:07:14.100Z,191.95
2018-03-06T00:09:41.210Z,205.20
2018-03-06T00:12:08.136Z,247.37
2018-03-06T00:14:35.088Z,184.63
2018-03-06T00:17:02.064Z,162.62
2018-03-06T00:19:29.180Z,153.77
2018-03-06T00:21:56.388Z,147.82
2018-03-06T00:24:23.609Z,142.07
2018-03-06T00:26:50.825Z,143.68
2018-03-06T00:29:17.799Z,138.05
2018-03-06T00:31:44.884Z,123.15
2018-03-06T00:34:12.029Z,116.35
2018-03-06T00:36:39.111Z,115.70
2018-03-06T00:39:06.224Z,121.70
2018-03-06T00:41:33.303Z,123.22
2018-03-06T00:44:00.264Z,110.57
2018-03-06T00:46:27.263Z,112.32
2018-03-06T00:48:54.376Z,111.45
2018-03-06T00:51:21.352Z,113.00
2018-03-06T00:53:48.492Z,120.13
2018-03-06T00:56:15.448Z,103.10
2018-03-06T00:58:42.477Z,112.03
2018-03-06T01:01:09.446Z,118.10
2018-03-06T01:03:36.491Z,105.63
2018-03-06T01:06:03.423Z,108.07
2018-03-06T01:08:30.433Z,105.28
2018-03-06T01:10:57.400Z,108.55
2018-03-06T01:13:24.533Z,121.30
2018-03-06T01:15:51.761Z,106.75
2018-03-06T01:18:18.789Z,107.40
2018-03-06T01:20:45.785Z,112.15
2018-03-06T01:23:12.886Z,95.72
2018-03-06T01:25:39.930Z,104.20
2018-03-06T01:28:07.036Z,99.35
2018-03-06T01:30:34.077Z,103.95
2018-03-06T01:33:01.229Z,95.90
2018-03-06T01:35:28.386Z,105.10
2018-03-06T01:37:55.505Z,90.15
2018-03-06T01:40:22.646Z,103.55
2018-03-06T01:42:49.894Z,97.32
2018-03-06T01:45:16.944Z,101.97
2018-03-06T01:47:43.963Z,94.97
2018-03-06T01:50:11.119Z,93.97
2018-03-06T01:52:38.279Z,91.40
2018-03-06T01:55:05.385Z,94.15
2018-03-06T01:57:32.324Z,94.43
2018-03-06T01:59:59.378Z,88.22
2018-03-06T02:02:26.282Z,94.00
2018-03-06T02:04:53.363Z,87.72
2018-03-06T02:07:20.472Z,85.75
2018-03-06T02:09:47.686Z,90.57
2018-03-06T02:12:14.666Z,89.13
2018-03-06T02:14:41.850Z,81.80
2018-03-06T02:17:09.042Z,86.97
2018-03-06T02:19:36.148Z,83.37
2018-03-06T02:22:03.100Z,78.55
2018-03-06T02:24:30.021Z,89.43
2018-03-06T02:26:57.008Z,81.97
2018-03-06T02:29:24.107Z,89.45
2018-03-06T02:31:51.287Z,88.85
2018-03-06T02:34:18.293Z,82.85
2018-03-06T02:36:45.450Z,74.10
2018-03-06T02:39:12.378Z,81.63
2018-03-06T02:41:39.392Z,80.15
2018-03-06T02:44:06.500Z,79.28
2018-03-06T02:46:33.592Z,78.65
2018-03-06T02:49:00.602Z,76.05
2018-03-06T02:51:27.562Z,82.72
2018-03-06T02:53:54.560Z,80.97
2018-03-06T02:56:21.551Z,80.70
2018-03-06T02:58:48.646Z,88.93
2018-03-06T03:01:15.585Z,94.97
2018-03-06T03:03:42.640Z,80.45
2018-03-06T03:06:09.684Z,80.07
2018-03-06T03:08:36.776Z,78.62
2018-03-06T03:11:03.723Z,77.28
2018-03-06T03:13:30.854Z,81.25
2018-03-06T03:15:57.909Z,79.72
2018-03-06T03:18:25.085Z,89.00
2018-03-06T03:20:52.174Z,76.87
2018-03-06T03:23:19.208Z,80.95
2018-03-06T03:25:46.244Z,84.05
2018-03-06T03:28:13.180Z,76.20
2018-03-06T03:30:40.253Z,81.07
2018-03-06T03:33:07.396Z,81.87
2018-03-06T03:35:34.700Z,77.65
2018-03-06T03:38:01.748Z,85.30
2018-03-06T03:40:28.694Z,84.90
2018-03-06T03:42:55.842Z,86.63
2018-03-06T03:45:22.925Z,76.68
2018-03-06T03:47:49.934Z,81.45
2018-03-06T03:50:16.961Z,84.80
2018-03-06T03:52:44.012Z,82.15
2018-03-06T03:55:11.189Z,84.50
2018-03-06T03:57:38.318Z,76.32
2018-03-06T04:00:05.357Z,74.95
2018-03-06T04:02:32.294Z,76.50
2018-03-06T04:04:59.376Z,77.07
2018-03-06T04:07:26.480Z,79.28
2018-03-06T04:09:53.752Z,74.07
2018-03-06T04:12:20.844Z,74.45
2018-03-06T04:14:47.991Z,71.10
2018-03-06T04:17:15.047Z,79.68
2018-03-06T04:19:42.273Z,65.18
2018-03-06T04:22:09.278Z,64.40
2018-03-06T04:24:36.202Z,67.05
2018-03-06T04:27:03.251Z,67.22
2018-03-06T04:29:30.204Z,69.68
2018-03-06T04:31:57.256Z,71.32
2018-03-06T04:34:24.429Z,64.07
2018-03-06T04:36:51.504Z,69.82
2018-03-06T04:39:18.548Z,70.65
2018-03-06T04:41:45.552Z,65.80
2018-03-06T04:44:12.606Z,67.20
2018-03-06T04:46:39.748Z,69.00
2018-03-06T04:49:06.864Z,69.70
2018-03-06T04:51:33.865Z,73.22
2018-03-06T04:54:00.896Z,77.62
2018-03-06T04:56:27.875Z,72.72
2018-03-06T04:58:55.029Z,69.57
2018-03-06T05:01:22.257Z,74.87
2018-03-06T05:03:49.167Z,71.22
2018-03-06T05:06:16.222Z,68.93
2018-03-06T05:08:43.365Z,64.85
2018-03-06T05:11:10.536Z,74.15
2018-03-06T05:13:37.708Z,67.12
2018-03-06T05:16:04.731Z,64.03
2018-03-06T05:18:31.591Z,64.22
2018-03-06T05:20:58.503Z,67.90
2018-03-06T05:23:25.450Z,68.72
2018-03-06T05:25:52.359Z,68.22
2018-03-06T05:28:19.368Z,71.40
2018-03-06T05:30:46.452Z,66.95
2018-03-06T05:33:13.361Z,67.03
2018-03-06T05:35:40.441Z,65.32
2018-03-06T05:38:07.320Z,68.57
2018-03-06T05:40:34.259Z,64.03
2018-03-06T05:43:01.355Z,61.08
2018-03-06T05:45:28.313Z,73.05
2018-03-06T05:47:55.272Z,70.12
2018-03-06T05:50:22.303Z,69.68
2018-03-06T05:52:49.251Z,67.78
2018-03-06T05:55:16.298Z,70.57
2018-03-06T05:57:43.299Z,68.07
2018-03-06T06:00:10.360Z,70.70
2018-03-06T06:02:37.361Z,72.97
2018-03-06T06:05:04.538Z,69.20
2018-03-06T06:07:31.518Z,74.40
2018-03-06T06:09:58.614Z,74.40
2018-03-06T06:12:25.524Z,67.68
2018-03-06T06:14:52.723Z,72.37
2018-03-06T06:17:19.787Z,74.15
2018-03-06T06:19:46.910Z,73.60
2018-03-06T06:22:13.883Z,70.82
2018-03-06T06:24:42.418Z,72.10
2018-03-06T06:27:09.374Z,71.65
2018-03-06T06:29:36.314Z,81.28
2018-03-06T06:32:03.277Z,77.75
2018-03-06T06:34:30.296Z,73.15
2018-03-06T06:36:57.184Z,73.12
2018-03-06T06:39:24.224Z,76.53
2018-03-06T06:41:51.411Z,76.55
2018-03-06T06:44:18.405Z,78.55
2018-03-06T06:46:45.285Z,68.82
2018-03-06T06:49:12.333Z,75.37
2018-03-06T06:51:39.315Z,78.22
2018-03-06T06:54:06.323Z,75.57
2018-03-06T06:56:33.388Z,79.03
2018-03-06T06:59:00.463Z,80.82
2018-03-06T07:01:27.507Z,71.43
2018-03-06T07:03:54.521Z,72.18
2018-03-06T07:06:21.463Z,73.18
2018-03-06T07:08:48.404Z,70.53
2018-03-06T07:11:15.349Z,61.45
2018-03-06T07:13:42.321Z,65.75
2018-03-06T07:16:09.309Z,65.03
2018-03-06T07:18:36.321Z,72.47
2018-03-06T07:21:03.338Z,73.22
2018-03-06T07:23:30.228Z,61.50
2018-03-06T07:25:57.218Z,67.97
2018-03-06T07:28:24.245Z,66.75
2018-03-06T07:30:51.741Z,70.45
2018-03-06T07:33:18.641Z,67.30
2018-03-06T07:35:45.653Z,61.42
2018-03-06T07:38:12.573Z,66.12
2018-03-06T07:40:39.658Z,64.45
2018-03-06T07:43:06.628Z,67.32
2018-03-06T07:45:33.709Z,64.05
2018-03-06T07:48:00.604Z,69.25
2018-03-06T07:50:27.701Z,63.58
2018-03-06T07:52:54.626Z,67.97
2018-03-06T07:55:21.776Z,70.90
2018-03-06T07:57:48.685Z,67.45
2018-03-06T08:00:15.936Z,71.97
2018-03-06T08:02:42.949Z,64.12
2018-03-06T08:05:10.099Z,62.95
2018-03-06T08:07:37.210Z,64.93
2018-03-06T08:10:04.254Z,64.20
2018-03-06T08:12:31.203Z,68.97
2018-03-06T08:14:58.293Z,68.43
2018-03-06T08:17:25.285Z,60.78
2018-03-06T08:19:52.452Z,68.87
2018-03-06T08:22:19.461Z,65.07
2018-03-06T08:24:46.557Z,66.12
2018-03-06T08:27:13.513Z,73.20
2018-03-06T08:29:40.565Z,69.28
2018-03-06T08:32:07.611Z,66.30
2018-03-06T08:34:35.001Z,72.28
2018-03-06T08:37:01.918Z,65.37
2018-03-06T08:39:28.881Z,63.80
2018-03-06T08:41:55.945Z,63.08
2018-03-06T08:44:23.004Z,66.80
2018-03-06T08:46:50.048Z,61.25
2018-03-06T08:49:17.033Z,65.47
2018-03-06T08:51:43.958Z,64.00
2018-03-06T08:54:10.913Z,62.72
2018-03-06T08:56:38.881Z,61.35
2018-03-06T08:59:05.848Z,64.20
2018-03-06T09:01:32.742Z,62.83
2018-03-06T09:03:59.615Z,60.45
2018-03-06T09:06:26.551Z,68.45
2018-03-06T09:08:53.554Z,74.47
2018-03-06T09:11:20.524Z,80.60
2018-03-06T09:13:47.496Z,70.80
2018-03-06T09:16:14.467Z,70.20
2018-03-06T09:18:41.429Z,67.75
2018-03-06T09:21:08.368Z,114.22
2018-03-06T09:23:35.338Z,68.55
2018-03-06T09:26:02.270Z,60.63
2018-03-06T09:28:29.279Z,62.53
2018-03-06T09:30:56.378Z,61.70
2018-03-06T09:33:23.292Z,99.30
2018-03-06T09:35:50.373Z,74.55
2018-03-06T09:38:17.373Z,61.22
2018-03-06T09:40:44.306Z,59.58
2018-03-06T09:43:11.252Z,65.43
2018-03-06T09:45:38.390Z,63.10
2018-03-06T09:48:05.584Z,66.50
2018-03-06T09:50:32.608Z,66.12
2018-03-06T09:52:59.598Z,61.30
2018-03-06T09:55:27.028Z,55.97
2018-03-06T09:57:53.938Z,64.05
2018-03-06T10:00:21.075Z,60.10
2018-03-06T10:02:47.975Z,61.78
2018-03-06T10:05:15.278Z,56.13
2018-03-06T10:07:42.228Z,52.80
2018-03-06T10:10:09.229Z,52.78
2018-03-06T10:12:36.141Z,51.70
2018-03-06T10:15:03.431Z,55.75
2018-03-06T10:17:30.387Z,53.40
2018-03-06T10:19:57.574Z,48.67
2018-03-06T10:22:24.773Z,47.33
2018-03-06T10:24:51.931Z,47.58
2018-03-06T10:27:18.875Z,49.15
2018-03-06T10:29:46.091Z,45.72
2018-03-06T10:32:13.033Z,46.30
2018-03-06T10:34:40.011Z,43.30
2018-03-06T10:37:07.186Z,44.83
2018-03-06T10:39:34.257Z,43.10
2018-03-06T10:42:01.284Z,48.67
2018-03-06T10:44:28.399Z,43.17
2018-03-06T10:46:55.359Z,44.33
2018-03-06T10:49:22.258Z,42.28
2018-03-06T10:51:49.117Z,44.30
2018-03-06T10:54:16.074Z,46.80
2018-03-06T10:56:42.995Z,45.88
2018-03-06T10:59:10.142Z,43.78
2018-03-06T11:01:37.414Z,46.53
2018-03-06T11:04:04.459Z,44.00
2018-03-06T11:06:31.686Z,44.08
2018-03-06T11:08:58.774Z,45.85
2018-03-06T11:11:25.794Z,44.15
2018-03-06T11:13:52.784Z,45.38
2018-03-06T11:16:19.848Z,43.10
2018-03-06T11:18:46.766Z,43.63
2018-03-06T11:21:13.723Z,44.25
2018-03-06T11:23:40.800Z,43.30
2018-03-06T11:26:07.677Z,44.63
2018-03-06T11:28:34.714Z,45.47
2018-03-06T11:31:01.705Z,43.03
2018-03-06T11:33:28.611Z,42.55
2018-03-06T11:35:55.691Z,42.78
2018-03-06T11:38:22.699Z,38.10
2018-03-06T11:40:49.747Z,40.45
2018-03-06T11:43:16.873Z,38.70
2018-03-06T11:45:43.835Z,44.40
2018-03-06T11:48:10.872Z,45.05
2018-03-06T11:50:37.775Z,39.28
2018-03-06T11:53:04.790Z,39.28
2018-03-06T11:55:31.865Z,43.40
2018-03-06T11:57:58.771Z,38.83
2018-03-06T12:00:25.752Z,39.90
2018-03-06T12:02:52.778Z,37.97
2018-03-06T12:05:19.806Z,43.05
2018-03-06T12:07:46.678Z,41.05
2018-03-06T12:10:13.638Z,39.47
2018-03-06T12:12:40.538Z,39.92
2018-03-06T12:15:07.522Z,41.45
2018-03-06T12:17:34.612Z,39.30
2018-03-06T12:20:01.607Z,40.75
2018-03-06T12:22:28.565Z,43.22
2018-03-06T12:24:55.659Z,39.35
2018-03-06T12:27:22.575Z,40.35
2018-03-06T12:29:49.581Z,41.55
2018-03-06T12:32:16.700Z,46.10
2018-03-06T12:34:43.778Z,40.42
2018-03-06T12:37:10.833Z,41.70
2018-03-06T12:39:37.849Z,41.45
2018-03-06T12:42:04.788Z,42.35
2018-03-06T12:44:31.747Z,45.80
2018-03-06T12:46:58.838Z,41.47
2018-03-06T12:49:25.738Z,46.35
2018-03-06T12:51:52.748Z,40.50
2018-03-06T12:54:19.707Z,42.13
2018-03-06T12:56:46.716Z,46.30
2018-03-06T12:59:13.693Z,39.92
2018-03-06T13:01:40.693Z,44.97
2018-03-06T13:04:07.625Z,41.25
2018-03-06T13:06:34.775Z,45.55
2018-03-06T13:09:01.731Z,43.92
2018-03-06T13:11:28.720Z,49.78
2018-03-06T13:13:55.709Z,46.47
2018-03-06T13:16:22.622Z,47.72
2018-03-06T13:18:49.500Z,41.80
2018-03-06T13:21:16.392Z,45.92
2018-03-06T13:23:43.324Z,45.45
2018-03-06T13:26:10.277Z,45.30
2018-03-06T13:28:37.214Z,42.80
2018-03-06T13:31:04.176Z,43.80
2018-03-06T13:33:31.091Z,48.55
2018-03-06T13:35:58.208Z,44.50
2018-03-06T13:38:25.123Z,42.20
2018-03-06T13:40:52.132Z,50.58
2018-03-06T13:43:19.027Z,48.05
2018-03-06T13:45:45.898Z,42.62
2018-03-06T13:48:12.943Z,46.00
2018-03-06T13:50:39.827Z,46.10
2018-03-06T13:53:06.833Z,44.55
2018-03-06T13:55:33.964Z,43.28
2018-03-06T13:58:00.882Z,46.47
2018-03-06T14:00:27.981Z,50.65
2018-03-06T14:02:55.026Z,43.35
2018-03-06T14:05:22.130Z,47.08
2018-03-06T14:07:49.103Z,46.40
2018-03-06T14:10:16.158Z,45.22
2018-03-06T14:12:43.037Z,44.92
2018-03-06T14:15:10.114Z,42.95
2018-03-06T14:17:37.297Z,41.63
2018-03-06T14:20:04.427Z,45.63
2018-03-06T14:22:31.425Z,42.20
2018-03-06T14:24:58.769Z,43.17
2018-03-06T14:27:25.836Z,42.03
2018-03-06T14:29:52.854Z,49.10
2018-03-06T14:32:19.752Z,44.20
2018-03-06T14:34:46.920Z,49.20
2018-03-06T14:37:13.840Z,42.42
2018-03-06T14:39:41.212Z,45.10
2018-03-06T14:42:08.124Z,44.60
2018-03-06T14:44:35.176Z,46.72
2018-03-06T14:47:02.200Z,42.60
2018-03-06T14:49:29.311Z,40.70
2018-03-06T14:51:56.376Z,43.53
2018-03-06T14:54:23.354Z,44.15
2018-03-06T14:56:50.472Z,46.03
2018-03-06T14:59:17.375Z,48.92
2018-03-06T15:01:44.321Z,48.83
2018-03-06T15:04:11.303Z,46.35
2018-03-06T15:06:38.274Z,43.53
2018-03-06T15:09:05.526Z,50.20
2018-03-06T15:11:32.571Z,49.15
2018-03-06T15:13:59.746Z,44.85
2018-03-06T15:16:26.813Z,43.45
2018-03-06T15:18:53.924Z,49.53
2018-03-06T15:21:20.934Z,46.90
2018-03-06T15:23:47.973Z,44.20
2018-03-06T15:26:14.911Z,48.75
2018-03-06T15:28:42.109Z,50.15
2018-03-06T15:31:09.145Z,49.00
2018-03-06T15:33:36.162Z,46.60
2018-03-06T15:36:03.285Z,48.28
2018-03-06T15:38:30.593Z,48.10
2018-03-06T15:40:57.496Z,52.17
2018-03-06T15:43:24.409Z,52.10
2018-03-06T15:45:51.433Z,54.30
2018-03-06T15:48:19.690Z,51.90
2018-03-06T15:50:47.621Z,51.92
2018-03-06T15:53:17.450Z,48.85
2018-03-06T15:55:44.907Z,51.00
2018-03-06T15:58:12.714Z,51.05
2018-03-06T16:00:40.677Z,47.92
2018-03-06T16:03:09.078Z,45.22
2018-03-06T16:05:36.771Z,49.15
2018-03-06T16:08:04.484Z,52.15
2018-03-06T16:10:32.026Z,51.30
2018-03-06T16:13:00.696Z,49.22
2018-03-06T16:15:27.944Z,51.85
2018-03-06T16:17:55.440Z,48.45
2018-03-06T16:20:22.983Z,52.25
2018-03-06T16:22:50.921Z,53.38
2018-03-06T16:25:19.413Z,52.88
2018-03-06T16:27:47.302Z,53.90
2018-03-06T16:30:14.353Z,49.85
2018-03-06T16:32:42.165Z,47.92
2018-03-06T16:35:10.066Z,49.28
2018-03-06T16:37:38.043Z,50.47
2018-03-06T16:40:05.531Z,48.78
2018-03-06T16:42:32.724Z,51.28
2018-03-06T16:44:59.940Z,48.00
2018-03-06T16:47:27.241Z,50.08
2018-03-06T16:49:54.578Z,49.88
2018-03-06T16:52:21.540Z,52.10
2018-03-06T16:54:48.729Z,55.17
2018-03-06T16:57:17.261Z,53.63
2018-03-06T16:59:44.374Z,57.97
2018-03-06T17:02:12.492Z,51.60
2018-03-06T17:04:39.824Z,54.42
2018-03-06T17:07:08.444Z,49.92
2018-03-06T17:09:35.672Z,54.60
2018-03-06T17:12:03.345Z,50.90
2018-03-06T17:14:30.386Z,50.20
2018-03-06T17:16:57.521Z,44.72
2018-03-06T17:19:24.586Z,47.05
2018-03-06T17:21:51.514Z,55.92
2018-03-06T17:24:18.477Z,53.20
2018-03-06T17:26:45.500Z,48.25
2018-03-06T17:29:12.560Z,58.85
2018-03-06T17:31:39.558Z,56.33
2018-03-06T17:34:06.794Z,55.88
2018-03-06T17:36:34.491Z,56.10
2018-03-06T17:39:01.847Z,51.58
2018-03-06T17:41:29.013Z,55.70
2018-03-06T17:43:56.085Z,51.83
2018-03-06T17:46:23.488Z,57.45
2018-03-06T17:48:50.395Z,54.95
2018-03-06T17:51:17.333Z,50.45
2018-03-06T17:53:44.200Z,56.17
2018-03-06T17:56:11.138Z,48.15
2018-03-06T17:58:39.204Z,51.30
2018-03-06T18:01:06.164Z,51.92
2018-03-06T18:03:33.315Z,53.55
2018-03-06T18:06:00.240Z,50.80
2018-03-06T18:08:27.184Z,51.78
2018-03-06T18:10:54.174Z,51.03
2018-03-06T18:13:21.104Z,52.25
2018-03-06T18:15:48.177Z,51.60
2018-03-06T18:18:15.180Z,54.72
2018-03-06T18:20:42.128Z,60.95
2018-03-06T18:23:09.052Z,52.65
2018-03-06T18:25:36.429Z,49.85
2018-03-06T18:28:03.572Z,51.55
2018-03-06T18:30:30.647Z,56.58
2018-03-06T18:32:57.657Z,55.95
2018-03-06T18:35:24.730Z,53.28
2018-03-06T18:37:51.685Z,53.20
2018-03-06T18:40:18.642Z,54.63
2018-03-06T18:42:45.659Z,59.72
2018-03-06T18:45:12.648Z,63.10
2018-03-06T18:47:39.572Z,55.65
2018-03-06T18:50:06.533Z,54.88
2018-03-06T18:52:33.547Z,61.13
2018-03-06T18:55:00.546Z,52.80
2018-03-06T18:57:27.540Z,54.78
2018-03-06T19:00:00.509Z,57.00
2018-03-06T19:02:33.536Z,49.38
2018-03-06T19:05:06.368Z,56.25
2018-03-06T19:07:33.407Z,53.40
2018-03-06T19:10:00.574Z,52.08
2018-03-06T19:12:27.531Z,61.10
2018-03-06T19:14:54.640Z,59.47
2018-03-06T19:17:21.666Z,60.30
2018-03-06T19:19:48.614Z,62.42
2018-03-06T19:22:15.590Z,63.65
2018-03-06T19:24:42.817Z,60.45
2018-03-06T19:27:10.017Z,63.42
2018-03-06T19:29:37.185Z,67.87
2018-03-06T19:32:04.516Z,72.53
2018-03-06T19:34:31.775Z,73.12
2018-03-06T19:36:58.807Z,74.25
2018-03-06T19:39:25.816Z,63.90
2018-03-06T19:41:52.835Z,71.53
2018-03-06T19:44:19.751Z,71.35
2018-03-06T19:46:46.677Z,70.37
2018-03-06T19:49:13.573Z,59.47
2018-03-06T19:51:40.642Z,69.22
2018-03-06T19:54:07.621Z,72.80
2018-03-06T19:56:34.889Z,62.20
2018-03-06T19:59:01.916Z,65.03
2018-03-06T20:01:28.967Z,65.68
2018-03-06T20:03:56.087Z,65.22
2018-03-06T20:06:23.185Z,63.67
2018-03-06T20:08:50.190Z,64.57
2018-03-06T20:11:17.340Z,66.35
2018-03-06T20:13:44.325Z,63.60
2018-03-06T20:16:11.257Z,67.80
2018-03-06T20:18:38.305Z,72.60
2018-03-06T20:21:05.532Z,73.78
2018-03-06T20:23:32.568Z,65.10
2018-03-06T20:25:59.666Z,64.18
2018-03-06T20:28:26.696Z,78.97
2018-03-06T20:30:59.615Z,72.80
2018-03-06T20:33:26.519Z,74.70
2018-03-06T20:35:53.494Z,96.50
2018-03-06T20:38:26.167Z,76.72
2018-03-06T20:40:53.324Z,76.78
2018-03-06T20:43:20.311Z,70.32
2018-03-06T20:45:53.262Z,69.55
2018-03-06T20:48:20.182Z,72.72
2018-03-06T20:50:47.210Z,68.78
2018-03-06T20:53:20.090Z,73.10
2018-03-06T20:55:47.165Z,66.85
2018-03-06T20:58:14.045Z,77.28
2018-03-06T21:00:41.196Z,75.28
2018-03-06T21:03:08.080Z,73.78
2018-03-06T21:05:35.064Z,76.82
2018-03-06T21:08:02.109Z,82.22
2018-03-06T21:10:29.115Z,69.37
2018-03-06T21:12:56.097Z,84.37
2018-03-06T21:15:23.084Z,75.82
2018-03-06T21:17:49.940Z,85.85
2018-03-06T21:20:16.912Z,79.45
2018-03-06T21:22:43.878Z,81.30
2018-03-06T21:25:10.924Z,82.80
2018-03-06T21:27:38.155Z,77.22
2018-03-06T21:30:05.759Z,76.25
2018-03-06T21:32:32.865Z,77.72
2018-03-06T21:35:00.275Z,74.07
2018-03-06T21:37:27.485Z,78.65
2018-03-06T21:39:54.676Z,77.45
2018-03-06T21:42:21.670Z,66.43
2018-03-06T21:44:48.614Z,74.78
2018-03-06T21:47:15.504Z,78.25
2018-03-06T21:49:42.697Z,74.82
2018-03-06T21:52:10.393Z,71.43
2018-03-06T21:54:37.526Z,79.68
2018-03-06T21:57:04.903Z,76.05
2018-03-06T21:59:32.083Z,63.45
2018-03-06T22:01:59.559Z,70.25
2018-03-06T22:04:26.488Z,73.82
2018-03-06T22:06:53.682Z,70.20
2018-03-06T22:09:21.852Z,77.72
2018-03-06T22:11:49.096Z,69.57
2018-03-06T22:14:16.065Z,76.47
2018-03-06T22:16:43.232Z,73.22
2018-03-06T22:19:10.711Z,71.37
2018-03-06T22:21:37.932Z,72.07
2018-03-06T22:24:05.242Z,72.80
2018-03-06T22:26:33.237Z,77.03
2018-03-06T22:29:00.236Z,74.68
2018-03-06T22:31:27.452Z,73.62
2018-03-06T22:33:54.454Z,78.18
2018-03-06T22:36:21.582Z,74.80
2018-03-06T22:38:48.860Z,76.97
2018-03-06T22:41:15.880Z,74.30
2018-03-06T22:43:42.942Z,79.53
2018-03-06T22:46:10.960Z,75.87
2018-03-06T22:48:38.481Z,80.18
2018-03-06T22:51:05.608Z,75.72
2018-03-06T22:53:32.736Z,77.35
2018-03-06T22:55:59.613Z,80.78
2018-03-06T22:58:26.590Z,86.43
2018-03-06T23:00:53.815Z,77.57
2018-03-06T23:03:21.121Z,79.25
2018-03-06T23:05:48.187Z,80.90
2018-03-06T23:08:15.111Z,84.65
2018-03-06T23:10:42.326Z,84.62
2018-03-06T23:13:09.350Z,87.00
2018-03-06T23:15:36.489Z,82.65
2018-03-06T23:18:03.536Z,84.25
2018-03-06T23:20:30.621Z,90.80
2018-03-06T23:22:57.641Z,87.15
2018-03-06T23:25:24.631Z,89.15
2018-03-06T23:27:51.755Z,96.55
2018-03-06T23:30:18.816Z,103.65
2018-03-06T23:32:45.870Z,92.50
2018-03-06T23:35:12.940Z,102.47
2018-03-06T23:37:39.868Z,87.20
2018-03-06T23:40:06.955Z,94.32
2018-03-06T23:42:34.074Z,87.88
2018-03-06T23:45:01.031Z,109.20
2018-03-06T23:47:27.970Z,92.43
2018-03-06T23:49:55.020Z,89.20
2018-03-06T23:52:21.985Z,85.38
2018-03-06T23:54:48.972Z,97.57
2018-03-06T23:57:16.051Z,89.68
2018-03-06T23:59:43.030Z,84.75
